sensor_id;sensor_type;location;lat;lon;timestamp;P1;durP1;ratioP1;P2;durP2;ratioP2
5690;SDS011;2870;42.680;23.364;2023-07-22T00:00:07;12.60;;;6.40;;
5690;SDS011;2870;42.680;23.364;2023-07-22T00:02:39;12.13;;;6.53;;
5690;SDS011;2870;42.680;23.364;2023-07-22T00:05:06;13.97;;;6.70;;
5690;SDS011;2870;42.680;23.364;2023-07-22T00:07:36;22.17;;;6.43;;
5690;SDS011;2870;42.680;23.364;2023-07-22T00:10:05;17.00;;;7.17;;
5690;SDS011;2870;42.680;23.364;2023-07-22T00:12:34;22.30;;;6.03;;
5690;SDS011;2870;42.680;23.364;2023-07-22T00:15:01;12.63;;;7.03;;
5690;SDS011;2870;42.680;23.364;2023-07-22T00:17:27;13.73;;;6.97;;
5690;SDS011;2870;42.680;23.364;2023-07-22T00:19:54;10.50;;;6.30;;
5690;SDS011;2870;42.680;23.364;2023-07-22T00:22:21;12.07;;;6.50;;
5690;SDS011;2870;42.680;23.364;2023-07-22T00:24:49;9.20;;;5.77;;
5690;SDS011;2870;42.680;23.364;2023-07-22T00:27:16;13.30;;;6.20;;
5690;SDS011;2870;42.680;23.364;2023-07-22T00:29:43;13.80;;;6.10;;
5690;SDS011;2870;42.680;23.364;2023-07-22T00:32:09;25.13;;;7.10;;
5690;SDS011;2870;42.680;23.364;2023-07-22T00:34:37;19.07;;;6.90;;
5690;SDS011;2870;42.680;23.364;2023-07-22T00:37:04;17.20;;;7.03;;
5690;SDS011;2870;42.680;23.364;2023-07-22T00:39:31;15.50;;;6.50;;
5690;SDS011;2870;42.680;23.364;2023-07-22T00:41:59;13.10;;;6.37;;
5690;SDS011;2870;42.680;23.364;2023-07-22T00:44:26;12.60;;;6.47;;
5690;SDS011;2870;42.680;23.364;2023-07-22T00:46:53;14.27;;;7.10;;
5690;SDS011;2870;42.680;23.364;2023-07-22T00:49:21;12.70;;;6.17;;
5690;SDS011;2870;42.680;23.364;2023-07-22T00:51:49;12.60;;;6.80;;
5690;SDS011;2870;42.680;23.364;2023-07-22T00:54:15;20.90;;;6.87;;
5690;SDS011;2870;42.680;23.364;2023-07-22T00:56:42;18.50;;;7.00;;
5690;SDS011;2870;42.680;23.364;2023-07-22T00:59:11;24.47;;;6.70;;
5690;SDS011;2870;42.680;23.364;2023-07-22T01:01:40;11.63;;;6.80;;
5690;SDS011;2870;42.680;23.364;2023-07-22T01:04:07;13.87;;;6.40;;
5690;SDS011;2870;42.680;23.364;2023-07-22T01:06:34;14.17;;;5.80;;
5690;SDS011;2870;42.680;23.364;2023-07-22T01:09:01;15.80;;;7.33;;
5690;SDS011;2870;42.680;23.364;2023-07-22T01:11:29;21.83;;;7.00;;
5690;SDS011;2870;42.680;23.364;2023-07-22T01:13:56;12.50;;;7.57;;
5690;SDS011;2870;42.680;23.364;2023-07-22T01:16:26;14.60;;;7.53;;
5690;SDS011;2870;42.680;23.364;2023-07-22T01:18:53;15.83;;;7.90;;
5690;SDS011;2870;42.680;23.364;2023-07-22T01:21:21;14.53;;;7.60;;
5690;SDS011;2870;42.680;23.364;2023-07-22T01:23:51;22.13;;;8.17;;
5690;SDS011;2870;42.680;23.364;2023-07-22T01:26:18;20.73;;;8.30;;
5690;SDS011;2870;42.680;23.364;2023-07-22T01:28:45;18.13;;;7.80;;
5690;SDS011;2870;42.680;23.364;2023-07-22T01:31:12;24.73;;;7.70;;
5690;SDS011;2870;42.680;23.364;2023-07-22T01:33:39;17.23;;;8.20;;
5690;SDS011;2870;42.680;23.364;2023-07-22T01:36:06;23.83;;;8.87;;
5690;SDS011;2870;42.680;23.364;2023-07-22T01:38:33;17.00;;;8.57;;
5690;SDS011;2870;42.680;23.364;2023-07-22T01:41:02;16.67;;;8.33;;
5690;SDS011;2870;42.680;23.364;2023-07-22T01:43:29;15.90;;;8.37;;
5690;SDS011;2870;42.680;23.364;2023-07-22T01:45:56;16.43;;;7.30;;
5690;SDS011;2870;42.680;23.364;2023-07-22T01:48:22;19.80;;;8.33;;
5690;SDS011;2870;42.680;23.364;2023-07-22T01:50:49;18.67;;;8.20;;
5690;SDS011;2870;42.680;23.364;2023-07-22T01:53:16;19.37;;;8.20;;
5690;SDS011;2870;42.680;23.364;2023-07-22T01:55:43;24.13;;;9.73;;
5690;SDS011;2870;42.680;23.364;2023-07-22T01:58:12;17.53;;;8.00;;
5690;SDS011;2870;42.680;23.364;2023-07-22T02:03:35;22.67;;;8.27;;
5690;SDS011;2870;42.680;23.364;2023-07-22T02:06:02;20.83;;;8.47;;
5690;SDS011;2870;42.680;23.364;2023-07-22T02:08:30;14.03;;;8.27;;
5690;SDS011;2870;42.680;23.364;2023-07-22T02:10:59;15.37;;;7.37;;
5690;SDS011;2870;42.680;23.364;2023-07-22T02:13:30;20.60;;;7.47;;
5690;SDS011;2870;42.680;23.364;2023-07-22T02:15:57;13.53;;;7.50;;
5690;SDS011;2870;42.680;23.364;2023-07-22T02:18:24;14.70;;;7.73;;
5690;SDS011;2870;42.680;23.364;2023-07-22T02:20:51;15.43;;;7.70;;
5690;SDS011;2870;42.680;23.364;2023-07-22T02:23:18;13.73;;;6.97;;
5690;SDS011;2870;42.680;23.364;2023-07-22T02:25:48;17.00;;;8.40;;
5690;SDS011;2870;42.680;23.364;2023-07-22T02:28:15;16.90;;;8.20;;
5690;SDS011;2870;42.680;23.364;2023-07-22T02:30:47;15.43;;;7.67;;
5690;SDS011;2870;42.680;23.364;2023-07-22T02:33:14;16.73;;;7.80;;
5690;SDS011;2870;42.680;23.364;2023-07-22T02:35:42;15.13;;;7.40;;
5690;SDS011;2870;42.680;23.364;2023-07-22T02:38:09;16.03;;;9.43;;
5690;SDS011;2870;42.680;23.364;2023-07-22T02:40:36;19.53;;;7.83;;
5690;SDS011;2870;42.680;23.364;2023-07-22T02:43:04;14.43;;;7.97;;
5690;SDS011;2870;42.680;23.364;2023-07-22T02:45:32;14.97;;;8.33;;
5690;SDS011;2870;42.680;23.364;2023-07-22T02:48:00;16.20;;;8.80;;
5690;SDS011;2870;42.680;23.364;2023-07-22T02:50:27;21.80;;;7.70;;
5690;SDS011;2870;42.680;23.364;2023-07-22T02:52:54;16.50;;;7.17;;
5690;SDS011;2870;42.680;23.364;2023-07-22T02:55:21;14.90;;;7.63;;
5690;SDS011;2870;42.680;23.364;2023-07-22T02:57:48;16.40;;;7.40;;
5690;SDS011;2870;42.680;23.364;2023-07-22T03:00:16;16.67;;;8.27;;
5690;SDS011;2870;42.680;23.364;2023-07-22T03:02:48;19.33;;;8.43;;
5690;SDS011;2870;42.680;23.364;2023-07-22T03:05:17;23.93;;;7.30;;
5690;SDS011;2870;42.680;23.364;2023-07-22T03:07:44;19.37;;;7.20;;
5690;SDS011;2870;42.680;23.364;2023-07-22T03:10:11;18.23;;;7.87;;
5690;SDS011;2870;42.680;23.364;2023-07-22T03:12:38;13.10;;;7.77;;
5690;SDS011;2870;42.680;23.364;2023-07-22T03:15:05;11.80;;;7.67;;
5690;SDS011;2870;42.680;23.364;2023-07-22T03:17:33;14.13;;;8.10;;
5690;SDS011;2870;42.680;23.364;2023-07-22T03:20:01;15.20;;;7.40;;
5690;SDS011;2870;42.680;23.364;2023-07-22T03:22:35;12.13;;;7.77;;
5690;SDS011;2870;42.680;23.364;2023-07-22T03:25:02;15.57;;;8.20;;
5690;SDS011;2870;42.680;23.364;2023-07-22T03:27:33;16.63;;;8.30;;
5690;SDS011;2870;42.680;23.364;2023-07-22T03:29:59;14.60;;;7.63;;
5690;SDS011;2870;42.680;23.364;2023-07-22T03:32:27;16.20;;;8.03;;
5690;SDS011;2870;42.680;23.364;2023-07-22T03:34:54;15.57;;;7.57;;
5690;SDS011;2870;42.680;23.364;2023-07-22T03:37:20;15.90;;;8.20;;
5690;SDS011;2870;42.680;23.364;2023-07-22T03:39:49;14.40;;;9.53;;
5690;SDS011;2870;42.680;23.364;2023-07-22T03:42:15;20.50;;;8.77;;
5690;SDS011;2870;42.680;23.364;2023-07-22T03:44:43;18.80;;;7.73;;
5690;SDS011;2870;42.680;23.364;2023-07-22T03:47:09;11.03;;;7.93;;
5690;SDS011;2870;42.680;23.364;2023-07-22T03:49:36;15.40;;;9.20;;
5690;SDS011;2870;42.680;23.364;2023-07-22T03:52:04;22.07;;;9.53;;
5690;SDS011;2870;42.680;23.364;2023-07-22T03:54:31;15.63;;;8.50;;
5690;SDS011;2870;42.680;23.364;2023-07-22T03:56:59;17.57;;;8.37;;
5690;SDS011;2870;42.680;23.364;2023-07-22T03:59:26;17.07;;;8.53;;
5690;SDS011;2870;42.680;23.364;2023-07-22T04:01:53;26.47;;;9.47;;
5690;SDS011;2870;42.680;23.364;2023-07-22T04:04:20;20.10;;;8.33;;
5690;SDS011;2870;42.680;23.364;2023-07-22T04:06:47;21.17;;;9.23;;
5690;SDS011;2870;42.680;23.364;2023-07-22T04:09:14;16.33;;;8.47;;
5690;SDS011;2870;42.680;23.364;2023-07-22T04:11:41;17.13;;;8.33;;
5690;SDS011;2870;42.680;23.364;2023-07-22T04:14:09;16.33;;;8.67;;
5690;SDS011;2870;42.680;23.364;2023-07-22T04:16:37;16.40;;;8.40;;
5690;SDS011;2870;42.680;23.364;2023-07-22T04:19:04;20.00;;;8.70;;
5690;SDS011;2870;42.680;23.364;2023-07-22T04:21:31;15.13;;;8.57;;
5690;SDS011;2870;42.680;23.364;2023-07-22T04:23:58;24.03;;;8.93;;
5690;SDS011;2870;42.680;23.364;2023-07-22T04:26:24;14.53;;;9.07;;
5690;SDS011;2870;42.680;23.364;2023-07-22T04:28:51;11.37;;;8.00;;
5690;SDS011;2870;42.680;23.364;2023-07-22T04:31:19;19.53;;;10.97;;
5690;SDS011;2870;42.680;23.364;2023-07-22T04:33:46;27.40;;;14.00;;
5690;SDS011;2870;42.680;23.364;2023-07-22T04:36:13;32.57;;;12.60;;
5690;SDS011;2870;42.680;23.364;2023-07-22T04:38:39;28.43;;;12.60;;
5690;SDS011;2870;42.680;23.364;2023-07-22T04:41:06;26.40;;;12.30;;
5690;SDS011;2870;42.680;23.364;2023-07-22T04:43:33;21.33;;;11.00;;
5690;SDS011;2870;42.680;23.364;2023-07-22T04:46:00;23.10;;;11.70;;
5690;SDS011;2870;42.680;23.364;2023-07-22T04:48:28;19.87;;;11.80;;
5690;SDS011;2870;42.680;23.364;2023-07-22T04:50:56;22.10;;;11.77;;
5690;SDS011;2870;42.680;23.364;2023-07-22T04:53:23;19.63;;;11.00;;
5690;SDS011;2870;42.680;23.364;2023-07-22T04:55:50;29.73;;;10.40;;
5690;SDS011;2870;42.680;23.364;2023-07-22T04:58:16;20.93;;;10.90;;
5690;SDS011;2870;42.680;23.364;2023-07-22T05:00:45;23.30;;;11.90;;
5690;SDS011;2870;42.680;23.364;2023-07-22T05:03:12;18.20;;;10.90;;
5690;SDS011;2870;42.680;23.364;2023-07-22T05:05:41;38.63;;;11.30;;
5690;SDS011;2870;42.680;23.364;2023-07-22T05:08:08;20.70;;;10.47;;
5690;SDS011;2870;42.680;23.364;2023-07-22T05:10:34;21.13;;;11.50;;
5690;SDS011;2870;42.680;23.364;2023-07-22T05:13:03;28.00;;;11.07;;
5690;SDS011;2870;42.680;23.364;2023-07-22T05:15:29;23.63;;;10.13;;
5690;SDS011;2870;42.680;23.364;2023-07-22T05:17:56;19.80;;;10.40;;
5690;SDS011;2870;42.680;23.364;2023-07-22T05:20:23;18.70;;;11.20;;
5690;SDS011;2870;42.680;23.364;2023-07-22T05:22:51;26.53;;;9.90;;
5690;SDS011;2870;42.680;23.364;2023-07-22T05:25:18;29.10;;;10.80;;
5690;SDS011;2870;42.680;23.364;2023-07-22T05:27:45;17.47;;;10.17;;
5690;SDS011;2870;42.680;23.364;2023-07-22T05:30:11;19.07;;;10.50;;
5690;SDS011;2870;42.680;23.364;2023-07-22T05:32:38;15.33;;;10.20;;
5690;SDS011;2870;42.680;23.364;2023-07-22T05:35:05;19.77;;;10.90;;
5690;SDS011;2870;42.680;23.364;2023-07-22T05:37:32;16.03;;;10.20;;
5690;SDS011;2870;42.680;23.364;2023-07-22T05:40:00;25.67;;;10.23;;
5690;SDS011;2870;42.680;23.364;2023-07-22T05:42:27;15.33;;;9.80;;
5690;SDS011;2870;42.680;23.364;2023-07-22T05:44:55;17.90;;;10.40;;
5690;SDS011;2870;42.680;23.364;2023-07-22T05:47:23;17.17;;;10.13;;
5690;SDS011;2870;42.680;23.364;2023-07-22T05:49:50;17.50;;;10.30;;
5690;SDS011;2870;42.680;23.364;2023-07-22T05:52:17;17.93;;;10.53;;
5690;SDS011;2870;42.680;23.364;2023-07-22T05:54:44;17.10;;;9.83;;
5690;SDS011;2870;42.680;23.364;2023-07-22T05:57:12;18.40;;;9.90;;
5690;SDS011;2870;42.680;23.364;2023-07-22T05:59:39;19.03;;;9.53;;
5690;SDS011;2870;42.680;23.364;2023-07-22T06:02:06;14.60;;;9.10;;
5690;SDS011;2870;42.680;23.364;2023-07-22T06:04:34;21.60;;;9.60;;
5690;SDS011;2870;42.680;23.364;2023-07-22T06:07:00;18.67;;;9.60;;
5690;SDS011;2870;42.680;23.364;2023-07-22T06:09:27;18.93;;;10.20;;
5690;SDS011;2870;42.680;23.364;2023-07-22T06:11:54;26.43;;;9.70;;
5690;SDS011;2870;42.680;23.364;2023-07-22T06:14:22;21.87;;;9.23;;
5690;SDS011;2870;42.680;23.364;2023-07-22T06:16:49;18.07;;;9.60;;
5690;SDS011;2870;42.680;23.364;2023-07-22T06:19:16;15.33;;;8.40;;
5690;SDS011;2870;42.680;23.364;2023-07-22T06:21:43;20.77;;;9.63;;
5690;SDS011;2870;42.680;23.364;2023-07-22T06:24:10;17.13;;;9.53;;
5690;SDS011;2870;42.680;23.364;2023-07-22T06:26:37;27.00;;;9.47;;
5690;SDS011;2870;42.680;23.364;2023-07-22T06:29:03;16.30;;;8.63;;
5690;SDS011;2870;42.680;23.364;2023-07-22T06:31:31;14.57;;;9.10;;
5690;SDS011;2870;42.680;23.364;2023-07-22T06:33:58;24.47;;;9.10;;
5690;SDS011;2870;42.680;23.364;2023-07-22T06:36:25;14.50;;;8.63;;
5690;SDS011;2870;42.680;23.364;2023-07-22T06:38:53;18.60;;;9.00;;
5690;SDS011;2870;42.680;23.364;2023-07-22T06:41:21;18.47;;;7.87;;
5690;SDS011;2870;42.680;23.364;2023-07-22T06:43:49;15.67;;;9.60;;
5690;SDS011;2870;42.680;23.364;2023-07-22T06:46:16;16.13;;;8.87;;
5690;SDS011;2870;42.680;23.364;2023-07-22T06:48:45;20.27;;;9.40;;
5690;SDS011;2870;42.680;23.364;2023-07-22T06:51:12;12.60;;;8.40;;
5690;SDS011;2870;42.680;23.364;2023-07-22T06:53:39;16.50;;;8.97;;
5690;SDS011;2870;42.680;23.364;2023-07-22T06:56:06;23.23;;;8.30;;
5690;SDS011;2870;42.680;23.364;2023-07-22T06:58:33;19.87;;;9.10;;
5690;SDS011;2870;42.680;23.364;2023-07-22T07:00:59;19.77;;;9.20;;
5690;SDS011;2870;42.680;23.364;2023-07-22T07:03:26;19.33;;;9.03;;
5690;SDS011;2870;42.680;23.364;2023-07-22T07:05:55;15.07;;;8.50;;
5690;SDS011;2870;42.680;23.364;2023-07-22T07:08:22;18.20;;;8.70;;
5690;SDS011;2870;42.680;23.364;2023-07-22T07:10:49;22.10;;;8.73;;
5690;SDS011;2870;42.680;23.364;2023-07-22T07:13:16;16.60;;;8.30;;
5690;SDS011;2870;42.680;23.364;2023-07-22T07:15:45;21.93;;;10.00;;
5690;SDS011;2870;42.680;23.364;2023-07-22T07:18:13;15.73;;;9.47;;
5690;SDS011;2870;42.680;23.364;2023-07-22T07:20:40;16.93;;;8.60;;
5690;SDS011;2870;42.680;23.364;2023-07-22T07:23:08;19.73;;;9.43;;
5690;SDS011;2870;42.680;23.364;2023-07-22T07:25:35;21.43;;;9.50;;
5690;SDS011;2870;42.680;23.364;2023-07-22T07:28:02;14.20;;;8.70;;
5690;SDS011;2870;42.680;23.364;2023-07-22T07:30:29;18.67;;;8.90;;
5690;SDS011;2870;42.680;23.364;2023-07-22T07:32:57;16.03;;;8.67;;
5690;SDS011;2870;42.680;23.364;2023-07-22T07:35:24;16.83;;;10.03;;
5690;SDS011;2870;42.680;23.364;2023-07-22T07:37:51;23.47;;;9.20;;
5690;SDS011;2870;42.680;23.364;2023-07-22T07:40:19;25.50;;;8.83;;
5690;SDS011;2870;42.680;23.364;2023-07-22T07:42:46;29.17;;;9.60;;
5690;SDS011;2870;42.680;23.364;2023-07-22T07:45:13;15.23;;;8.37;;
5690;SDS011;2870;42.680;23.364;2023-07-22T07:47:40;25.13;;;9.53;;
5690;SDS011;2870;42.680;23.364;2023-07-22T07:50:07;14.90;;;9.13;;
5690;SDS011;2870;42.680;23.364;2023-07-22T07:52:34;21.97;;;9.23;;
5690;SDS011;2870;42.680;23.364;2023-07-22T07:55:01;17.40;;;8.47;;
5690;SDS011;2870;42.680;23.364;2023-07-22T07:57:29;15.70;;;9.00;;
5690;SDS011;2870;42.680;23.364;2023-07-22T07:59:55;17.80;;;8.20;;
5690;SDS011;2870;42.680;23.364;2023-07-22T08:02:22;18.07;;;8.43;;
5690;SDS011;2870;42.680;23.364;2023-07-22T08:04:49;13.43;;;9.17;;
5690;SDS011;2870;42.680;23.364;2023-07-22T08:07:16;16.03;;;8.90;;
5690;SDS011;2870;42.680;23.364;2023-07-22T08:09:43;18.47;;;8.93;;
5690;SDS011;2870;42.680;23.364;2023-07-22T08:12:14;15.80;;;8.97;;
5690;SDS011;2870;42.680;23.364;2023-07-22T08:14:42;18.10;;;8.93;;
5690;SDS011;2870;42.680;23.364;2023-07-22T08:17:09;25.17;;;9.27;;
5690;SDS011;2870;42.680;23.364;2023-07-22T08:19:36;17.47;;;10.00;;
5690;SDS011;2870;42.680;23.364;2023-07-22T08:22:03;17.47;;;8.37;;
5690;SDS011;2870;42.680;23.364;2023-07-22T08:24:31;21.70;;;8.50;;
5690;SDS011;2870;42.680;23.364;2023-07-22T08:26:58;13.93;;;8.00;;
5690;SDS011;2870;42.680;23.364;2023-07-22T08:29:24;18.10;;;8.80;;
5690;SDS011;2870;42.680;23.364;2023-07-22T08:31:53;16.47;;;8.60;;
5690;SDS011;2870;42.680;23.364;2023-07-22T08:34:19;15.33;;;8.97;;
5690;SDS011;2870;42.680;23.364;2023-07-22T08:36:46;16.10;;;8.43;;
5690;SDS011;2870;42.680;23.364;2023-07-22T08:39:13;17.87;;;8.50;;
5690;SDS011;2870;42.680;23.364;2023-07-22T08:41:40;16.47;;;8.77;;
5690;SDS011;2870;42.680;23.364;2023-07-22T08:44:09;15.67;;;8.07;;
5690;SDS011;2870;42.680;23.364;2023-07-22T08:46:40;17.40;;;9.60;;
5690;SDS011;2870;42.680;23.364;2023-07-22T08:49:09;20.17;;;9.50;;
5690;SDS011;2870;42.680;23.364;2023-07-22T08:51:36;15.47;;;7.97;;
5690;SDS011;2870;42.680;23.364;2023-07-22T08:54:05;17.30;;;8.90;;
5690;SDS011;2870;42.680;23.364;2023-07-22T08:56:32;25.83;;;8.73;;
5690;SDS011;2870;42.680;23.364;2023-07-22T08:59:00;19.53;;;8.43;;
5690;SDS011;2870;42.680;23.364;2023-07-22T09:01:27;20.23;;;8.27;;
5690;SDS011;2870;42.680;23.364;2023-07-22T09:03:54;17.30;;;8.07;;
5690;SDS011;2870;42.680;23.364;2023-07-22T09:06:25;24.83;;;8.90;;
5690;SDS011;2870;42.680;23.364;2023-07-22T09:08:52;15.33;;;8.30;;
5690;SDS011;2870;42.680;23.364;2023-07-22T09:11:19;15.70;;;9.30;;
5690;SDS011;2870;42.680;23.364;2023-07-22T09:13:46;16.30;;;9.07;;
5690;SDS011;2870;42.680;23.364;2023-07-22T09:16:14;20.87;;;8.93;;
5690;SDS011;2870;42.680;23.364;2023-07-22T09:18:42;17.60;;;8.10;;
5690;SDS011;2870;42.680;23.364;2023-07-22T09:21:09;14.83;;;9.07;;
5690;SDS011;2870;42.680;23.364;2023-07-22T09:23:38;17.03;;;8.20;;
5690;SDS011;2870;42.680;23.364;2023-07-22T09:26:08;15.80;;;8.10;;
5690;SDS011;2870;42.680;23.364;2023-07-22T09:28:49;19.77;;;7.70;;
5690;SDS011;2870;42.680;23.364;2023-07-22T09:31:17;24.60;;;9.03;;
5690;SDS011;2870;42.680;23.364;2023-07-22T09:33:44;16.43;;;8.60;;
5690;SDS011;2870;42.680;23.364;2023-07-22T09:36:11;15.97;;;7.47;;
5690;SDS011;2870;42.680;23.364;2023-07-22T09:38:40;13.87;;;7.33;;
5690;SDS011;2870;42.680;23.364;2023-07-22T09:41:06;18.00;;;8.20;;
5690;SDS011;2870;42.680;23.364;2023-07-22T09:43:36;20.03;;;8.37;;
5690;SDS011;2870;42.680;23.364;2023-07-22T09:46:07;21.70;;;8.20;;
5690;SDS011;2870;42.680;23.364;2023-07-22T09:48:41;22.87;;;8.10;;
5690;SDS011;2870;42.680;23.364;2023-07-22T09:51:13;30.00;;;8.37;;
5690;SDS011;2870;42.680;23.364;2023-07-22T09:53:46;23.07;;;8.10;;
5690;SDS011;2870;42.680;23.364;2023-07-22T09:56:13;17.07;;;8.80;;
5690;SDS011;2870;42.680;23.364;2023-07-22T09:58:40;15.87;;;8.27;;
5690;SDS011;2870;42.680;23.364;2023-07-22T10:01:08;16.30;;;7.77;;
5690;SDS011;2870;42.680;23.364;2023-07-22T10:03:39;17.30;;;8.30;;
5690;SDS011;2870;42.680;23.364;2023-07-22T10:06:09;14.97;;;7.60;;
5690;SDS011;2870;42.680;23.364;2023-07-22T10:08:38;15.90;;;8.00;;
5690;SDS011;2870;42.680;23.364;2023-07-22T10:11:07;19.20;;;7.87;;
5690;SDS011;2870;42.680;23.364;2023-07-22T10:13:36;17.23;;;7.60;;
5690;SDS011;2870;42.680;23.364;2023-07-22T10:16:03;21.43;;;7.83;;
5690;SDS011;2870;42.680;23.364;2023-07-22T10:18:31;27.57;;;7.40;;
5690;SDS011;2870;42.680;23.364;2023-07-22T10:20:59;18.37;;;7.63;;
5690;SDS011;2870;42.680;23.364;2023-07-22T10:23:26;24.30;;;7.47;;
5690;SDS011;2870;42.680;23.364;2023-07-22T10:25:54;20.43;;;8.00;;
5690;SDS011;2870;42.680;23.364;2023-07-22T10:28:25;28.83;;;7.70;;
5690;SDS011;2870;42.680;23.364;2023-07-22T10:30:52;19.23;;;7.73;;
5690;SDS011;2870;42.680;23.364;2023-07-22T10:33:19;17.53;;;7.47;;
5690;SDS011;2870;42.680;23.364;2023-07-22T10:36:01;23.60;;;7.07;;
5690;SDS011;2870;42.680;23.364;2023-07-22T10:38:29;26.00;;;7.77;;
5690;SDS011;2870;42.680;23.364;2023-07-22T10:40:56;19.70;;;7.10;;
5690;SDS011;2870;42.680;23.364;2023-07-22T10:43:25;14.60;;;5.90;;
5690;SDS011;2870;42.680;23.364;2023-07-22T10:45:54;17.00;;;6.68;;
5690;SDS011;2870;42.680;23.364;2023-07-22T10:48:22;16.75;;;7.05;;
5690;SDS011;2870;42.680;23.364;2023-07-22T10:50:52;25.90;;;6.22;;
5690;SDS011;2870;42.680;23.364;2023-07-22T10:53:21;26.43;;;7.13;;
5690;SDS011;2870;42.680;23.364;2023-07-22T10:56:11;24.70;;;5.57;;
5690;SDS011;2870;42.680;23.364;2023-07-22T10:58:56;26.33;;;6.77;;
5690;SDS011;2870;42.680;23.364;2023-07-22T11:01:30;28.20;;;5.10;;
5690;SDS011;2870;42.680;23.364;2023-07-22T11:04:17;24.70;;;5.77;;
5690;SDS011;2870;42.680;23.364;2023-07-22T11:06:55;23.73;;;6.07;;
5690;SDS011;2870;42.680;23.364;2023-07-22T11:09:33;24.57;;;6.10;;
5690;SDS011;2870;42.680;23.364;2023-07-22T11:12:05;42.97;;;7.57;;
5690;SDS011;2870;42.680;23.364;2023-07-22T11:14:37;24.17;;;7.10;;
5690;SDS011;2870;42.680;23.364;2023-07-22T11:17:06;28.20;;;6.77;;
5690;SDS011;2870;42.680;23.364;2023-07-22T11:19:34;18.20;;;5.90;;
5690;SDS011;2870;42.680;23.364;2023-07-22T11:22:01;29.20;;;6.03;;
5690;SDS011;2870;42.680;23.364;2023-07-22T11:24:29;40.63;;;6.53;;
5690;SDS011;2870;42.680;23.364;2023-07-22T11:26:58;27.90;;;6.60;;
5690;SDS011;2870;42.680;23.364;2023-07-22T11:29:25;32.33;;;6.20;;
5690;SDS011;2870;42.680;23.364;2023-07-22T11:31:53;22.07;;;5.07;;
5690;SDS011;2870;42.680;23.364;2023-07-22T11:34:20;22.80;;;6.90;;
5690;SDS011;2870;42.680;23.364;2023-07-22T11:36:48;28.07;;;7.00;;
5690;SDS011;2870;42.680;23.364;2023-07-22T11:39:17;29.23;;;8.27;;
5690;SDS011;2870;42.680;23.364;2023-07-22T11:41:46;28.37;;;6.03;;
5690;SDS011;2870;42.680;23.364;2023-07-22T11:44:15;26.10;;;5.70;;
5690;SDS011;2870;42.680;23.364;2023-07-22T11:46:55;35.47;;;6.73;;
5690;SDS011;2870;42.680;23.364;2023-07-22T11:49:24;19.83;;;5.70;;
5690;SDS011;2870;42.680;23.364;2023-07-22T11:51:54;31.90;;;6.20;;
5690;SDS011;2870;42.680;23.364;2023-07-22T11:54:21;28.53;;;6.93;;
5690;SDS011;2870;42.680;23.364;2023-07-22T11:56:48;24.40;;;5.67;;
5690;SDS011;2870;42.680;23.364;2023-07-22T11:59:15;30.43;;;6.20;;
5690;SDS011;2870;42.680;23.364;2023-07-22T12:01:43;32.80;;;6.33;;
5690;SDS011;2870;42.680;23.364;2023-07-22T12:04:13;25.10;;;7.33;;
5690;SDS011;2870;42.680;23.364;2023-07-22T12:06:40;33.50;;;6.00;;
5690;SDS011;2870;42.680;23.364;2023-07-22T12:09:07;36.63;;;6.50;;
5690;SDS011;2870;42.680;23.364;2023-07-22T12:11:35;28.50;;;6.30;;
5690;SDS011;2870;42.680;23.364;2023-07-22T12:14:09;25.47;;;6.00;;
5690;SDS011;2870;42.680;23.364;2023-07-22T12:16:37;21.63;;;6.13;;
5690;SDS011;2870;42.680;23.364;2023-07-22T12:19:06;23.60;;;6.33;;
5690;SDS011;2870;42.680;23.364;2023-07-22T12:21:35;22.67;;;6.33;;
5690;SDS011;2870;42.680;23.364;2023-07-22T12:24:02;25.40;;;5.57;;
5690;SDS011;2870;42.680;23.364;2023-07-22T12:26:30;28.87;;;6.37;;
5690;SDS011;2870;42.680;23.364;2023-07-22T12:28:57;19.97;;;5.27;;
5690;SDS011;2870;42.680;23.364;2023-07-22T12:31:24;22.60;;;5.90;;
5690;SDS011;2870;42.680;23.364;2023-07-22T12:33:51;32.47;;;6.20;;
5690;SDS011;2870;42.680;23.364;2023-07-22T12:36:18;17.63;;;5.10;;
5690;SDS011;2870;42.680;23.364;2023-07-22T12:38:47;41.53;;;6.53;;
5690;SDS011;2870;42.680;23.364;2023-07-22T12:41:13;34.30;;;6.23;;
5690;SDS011;2870;42.680;23.364;2023-07-22T12:43:40;32.23;;;6.70;;
5690;SDS011;2870;42.680;23.364;2023-07-22T12:46:07;24.67;;;5.77;;
5690;SDS011;2870;42.680;23.364;2023-07-22T12:48:34;40.50;;;6.77;;
5690;SDS011;2870;42.680;23.364;2023-07-22T12:51:00;15.33;;;4.83;;
5690;SDS011;2870;42.680;23.364;2023-07-22T12:53:27;30.33;;;6.23;;
5690;SDS011;2870;42.680;23.364;2023-07-22T12:55:56;22.83;;;6.63;;
5690;SDS011;2870;42.680;23.364;2023-07-22T12:58:23;25.40;;;6.33;;
5690;SDS011;2870;42.680;23.364;2023-07-22T13:00:50;24.37;;;5.60;;
5690;SDS011;2870;42.680;23.364;2023-07-22T13:03:17;24.93;;;6.07;;
5690;SDS011;2870;42.680;23.364;2023-07-22T13:05:44;17.33;;;5.43;;
5690;SDS011;2870;42.680;23.364;2023-07-22T13:08:10;20.30;;;5.33;;
5690;SDS011;2870;42.680;23.364;2023-07-22T13:10:38;22.83;;;4.83;;
5690;SDS011;2870;42.680;23.364;2023-07-22T13:13:10;24.53;;;5.77;;
5690;SDS011;2870;42.680;23.364;2023-07-22T13:15:37;29.77;;;5.63;;
5690;SDS011;2870;42.680;23.364;2023-07-22T13:18:03;24.90;;;6.60;;
5690;SDS011;2870;42.680;23.364;2023-07-22T13:20:31;21.10;;;5.80;;
5690;SDS011;2870;42.680;23.364;2023-07-22T13:22:57;22.73;;;5.97;;
5690;SDS011;2870;42.680;23.364;2023-07-22T13:25:24;30.43;;;5.07;;
5690;SDS011;2870;42.680;23.364;2023-07-22T13:27:51;33.67;;;6.33;;
5690;SDS011;2870;42.680;23.364;2023-07-22T13:30:19;24.97;;;6.23;;
5690;SDS011;2870;42.680;23.364;2023-07-22T13:32:46;25.20;;;5.77;;
5690;SDS011;2870;42.680;23.364;2023-07-22T13:35:13;21.40;;;5.53;;
5690;SDS011;2870;42.680;23.364;2023-07-22T13:37:40;34.87;;;6.10;;
5690;SDS011;2870;42.680;23.364;2023-07-22T13:40:07;17.77;;;4.97;;
5690;SDS011;2870;42.680;23.364;2023-07-22T13:42:36;31.17;;;6.67;;
5690;SDS011;2870;42.680;23.364;2023-07-22T13:45:03;25.93;;;5.47;;
5690;SDS011;2870;42.680;23.364;2023-07-22T13:47:32;33.73;;;6.60;;
5690;SDS011;2870;42.680;23.364;2023-07-22T13:49:59;22.33;;;5.73;;
5690;SDS011;2870;42.680;23.364;2023-07-22T13:52:26;32.50;;;5.93;;
5690;SDS011;2870;42.680;23.364;2023-07-22T13:54:52;30.30;;;6.00;;
5690;SDS011;2870;42.680;23.364;2023-07-22T13:57:20;24.73;;;6.43;;
5690;SDS011;2870;42.680;23.364;2023-07-22T13:59:46;24.33;;;5.83;;
5690;SDS011;2870;42.680;23.364;2023-07-22T14:02:13;29.40;;;6.23;;
5690;SDS011;2870;42.680;23.364;2023-07-22T14:04:41;31.40;;;5.80;;
5690;SDS011;2870;42.680;23.364;2023-07-22T14:07:08;31.60;;;7.07;;
5690;SDS011;2870;42.680;23.364;2023-07-22T14:09:35;28.83;;;5.20;;
5690;SDS011;2870;42.680;23.364;2023-07-22T14:12:01;21.47;;;5.83;;
5690;SDS011;2870;42.680;23.364;2023-07-22T14:14:29;24.00;;;5.93;;
5690;SDS011;2870;42.680;23.364;2023-07-22T14:16:56;21.93;;;5.50;;
5690;SDS011;2870;42.680;23.364;2023-07-22T14:19:23;24.77;;;6.60;;
5690;SDS011;2870;42.680;23.364;2023-07-22T14:21:51;32.63;;;5.87;;
5690;SDS011;2870;42.680;23.364;2023-07-22T14:24:18;42.37;;;5.80;;
5690;SDS011;2870;42.680;23.364;2023-07-22T14:26:45;21.20;;;5.93;;
5690;SDS011;2870;42.680;23.364;2023-07-22T14:29:12;28.03;;;5.20;;
5690;SDS011;2870;42.680;23.364;2023-07-22T14:31:41;26.87;;;6.10;;
5690;SDS011;2870;42.680;23.364;2023-07-22T14:34:08;34.50;;;5.30;;
5690;SDS011;2870;42.680;23.364;2023-07-22T14:36:35;29.80;;;5.70;;
5690;SDS011;2870;42.680;23.364;2023-07-22T14:39:04;30.03;;;6.57;;
5690;SDS011;2870;42.680;23.364;2023-07-22T14:41:30;31.03;;;5.77;;
5690;SDS011;2870;42.680;23.364;2023-07-22T14:43:58;40.43;;;5.83;;
5690;SDS011;2870;42.680;23.364;2023-07-22T14:46:25;33.70;;;5.93;;
5690;SDS011;2870;42.680;23.364;2023-07-22T14:48:51;20.43;;;5.80;;
5690;SDS011;2870;42.680;23.364;2023-07-22T14:51:18;20.47;;;5.23;;